createdAt,value
2022-10-10T00:00:58.128Z,9.78
2022-10-10T00:03:27.204Z,9.77
2022-10-10T00:05:53.901Z,9.75
2022-10-10T00:08:20.509Z,9.69
2022-10-10T00:10:47.119Z,9.70
2022-10-10T00:13:13.703Z,9.67
2022-10-10T00:15:40.462Z,9.64
2022-10-10T00:18:07.386Z,9.65
2022-10-10T00:20:34.028Z,9.62
2022-10-10T00:23:05.378Z,9.61
2022-10-10T00:25:31.955Z,9.57
2022-10-10T00:28:02.654Z,9.37
2022-10-10T00:30:31.961Z,9.49
2022-10-10T00:32:59.651Z,9.39
2022-10-10T00:35:27.580Z,9.51
2022-10-10T00:37:54.397Z,9.44
2022-10-10T00:40:21.458Z,9.47
2022-10-10T00:42:51.005Z,9.45
2022-10-10T00:45:29.268Z,9.44
2022-10-10T00:48:06.704Z,9.38
2022-10-10T00:50:38.687Z,9.37
2022-10-10T00:53:06.880Z,9.40
2022-10-10T00:55:34.994Z,9.39
2022-10-10T00:58:01.890Z,9.38
2022-10-10T01:00:28.761Z,9.35
2022-10-10T01:02:55.385Z,9.31
2022-10-10T01:05:22.164Z,9.29
2022-10-10T01:07:49.005Z,9.31
2022-10-10T01:10:17.793Z,9.31
2022-10-10T01:13:04.411Z,9.28
2022-10-10T01:15:43.232Z,9.22
2022-10-10T01:18:26.364Z,9.25
2022-10-10T01:21:18.255Z,9.23
2022-10-10T01:24:01.278Z,9.22
2022-10-10T01:26:42.928Z,9.22
2022-10-10T01:29:26.481Z,9.20
2022-10-10T01:32:00.353Z,9.19
2022-10-10T01:34:37.585Z,9.14
2022-10-10T01:37:12.982Z,9.18
2022-10-10T01:39:56.780Z,9.09
2022-10-10T01:42:32.106Z,9.14
2022-10-10T01:44:58.693Z,9.14
2022-10-10T01:47:25.701Z,8.91
2022-10-10T01:49:57.837Z,9.14
2022-10-10T01:52:42.427Z,9.13
2022-10-10T01:55:09.321Z,9.12
2022-10-10T01:58:13.518Z,9.11
2022-10-10T02:00:50.005Z,9.09
2022-10-10T02:03:21.131Z,8.96
2022-10-10T02:06:02.420Z,9.07
2022-10-10T02:08:34.403Z,9.07
2022-10-10T02:11:08.283Z,9.05
2022-10-10T02:13:37.111Z,9.05
2022-10-10T02:16:12.037Z,9.06
2022-10-10T02:18:39.264Z,8.95
2022-10-10T02:21:09.076Z,9.03
2022-10-10T02:23:36.007Z,9.02
2022-10-10T02:26:03.622Z,8.90
2022-10-10T02:28:50.781Z,8.99
2022-10-10T02:31:26.766Z,8.96
2022-10-10T02:34:01.729Z,8.98
2022-10-10T02:36:32.107Z,8.86
2022-10-10T02:39:01.939Z,8.93
2022-10-10T02:41:29.508Z,8.87
2022-10-10T02:43:56.831Z,8.90
2022-10-10T02:46:25.917Z,8.85
2022-10-10T02:48:52.702Z,8.88
2022-10-10T02:51:19.634Z,8.84
2022-10-10T02:53:46.282Z,8.84
2022-10-10T02:56:12.811Z,8.82
2022-10-10T02:58:39.392Z,8.82
2022-10-10T03:01:06.183Z,8.82
2022-10-10T03:03:32.764Z,8.77
2022-10-10T03:05:59.327Z,8.75
2022-10-10T03:08:28.209Z,8.76
2022-10-10T03:11:00.491Z,8.74
2022-10-10T03:13:29.509Z,8.75
2022-10-10T03:15:56.171Z,8.72
2022-10-10T03:18:23.057Z,8.74
2022-10-10T03:20:56.024Z,8.71
2022-10-10T03:23:24.696Z,8.65
2022-10-10T03:25:51.508Z,8.55
2022-10-10T03:28:20.752Z,8.53
2022-10-10T03:30:48.407Z,8.62
2022-10-10T03:33:15.046Z,8.66
2022-10-10T03:35:44.266Z,8.67
2022-10-10T03:38:13.853Z,8.66
2022-10-10T03:40:42.520Z,8.44
2022-10-10T03:43:13.991Z,8.64
2022-10-10T03:45:45.966Z,8.59
2022-10-10T03:48:15.204Z,8.62
2022-10-10T03:50:41.847Z,8.59
2022-10-10T03:53:09.150Z,8.59
2022-10-10T03:55:35.788Z,8.54
2022-10-10T03:58:04.811Z,8.56
2022-10-10T04:00:31.485Z,8.55
2022-10-10T04:02:59.162Z,8.52
2022-10-10T04:05:25.800Z,8.50
2022-10-10T04:07:52.474Z,8.47
2022-10-10T04:10:19.037Z,8.45
2022-10-10T04:12:45.601Z,8.40
2022-10-10T04:15:12.096Z,8.40
2022-10-10T04:17:41.061Z,8.33
2022-10-10T04:20:07.988Z,8.37
2022-10-10T04:22:34.536Z,8.34
2022-10-10T04:25:01.127Z,8.29
2022-10-10T04:27:27.697Z,8.23
2022-10-10T04:29:54.298Z,8.26
2022-10-10T04:32:20.822Z,8.22
2022-10-10T04:34:47.365Z,8.17
2022-10-10T04:37:13.910Z,8.15
2022-10-10T04:39:40.552Z,8.16
2022-10-10T04:42:07.137Z,8.08
2022-10-10T04:44:33.926Z,8.07
2022-10-10T04:47:03.283Z,8.04
2022-10-10T04:49:29.817Z,7.99
2022-10-10T04:51:56.879Z,8.00
2022-10-10T04:54:23.426Z,7.96
2022-10-10T04:56:50.030Z,7.95
2022-10-10T04:59:16.551Z,7.91
2022-10-10T05:01:43.259Z,7.85
2022-10-10T05:04:09.928Z,7.88
2022-10-10T05:06:36.447Z,7.85
2022-10-10T05:09:03.072Z,7.44
2022-10-10T05:11:29.662Z,7.75
2022-10-10T05:13:56.229Z,7.80
2022-10-10T05:16:25.045Z,7.71
2022-10-10T05:18:51.630Z,7.77
2022-10-10T05:21:19.010Z,7.77
2022-10-10T05:23:45.634Z,7.73
2022-10-10T05:26:12.342Z,7.72
2022-10-10T05:28:41.217Z,7.70
2022-10-10T05:31:08.006Z,7.68
2022-10-10T05:33:37.006Z,7.68
2022-10-10T05:36:10.309Z,7.57
2022-10-10T05:38:38.076Z,7.43
2022-10-10T05:41:05.020Z,7.65
2022-10-10T05:43:31.711Z,7.69
2022-10-10T05:46:00.663Z,7.72
2022-10-10T05:48:27.948Z,7.58
2022-10-10T05:50:56.461Z,7.75
2022-10-10T05:53:24.350Z,7.59
2022-10-10T05:55:53.157Z,7.39
2022-10-10T05:58:19.994Z,7.78
2022-10-10T06:00:52.405Z,7.83
2022-10-10T06:03:19.106Z,7.84
2022-10-10T06:05:49.057Z,7.86
2022-10-10T06:08:15.687Z,7.90
2022-10-10T06:10:45.143Z,7.90
2022-10-10T06:13:20.316Z,7.96
2022-10-10T06:15:52.148Z,7.95
2022-10-10T06:18:19.392Z,8.02
2022-10-10T06:20:46.503Z,7.87
2022-10-10T06:23:16.418Z,8.07
2022-10-10T06:25:45.182Z,8.16
2022-10-10T06:28:12.374Z,7.86
2022-10-10T06:30:44.981Z,8.22
2022-10-10T06:33:12.507Z,8.33
2022-10-10T06:35:43.351Z,8.38
2022-10-10T06:38:10.509Z,8.42
2022-10-10T06:40:37.412Z,8.54
2022-10-10T06:43:04.762Z,8.56
2022-10-10T06:45:31.373Z,8.70
2022-10-10T06:48:00.253Z,8.76
2022-10-10T06:50:27.054Z,8.83
2022-10-10T06:52:53.917Z,8.96
2022-10-10T06:55:22.983Z,9.03
2022-10-10T06:57:51.825Z,9.02
2022-10-10T07:00:18.622Z,9.11
2022-10-10T07:02:45.157Z,9.22
2022-10-10T07:05:13.613Z,9.27
2022-10-10T07:07:43.090Z,9.37
2022-10-10T07:10:12.164Z,9.40
2022-10-10T07:12:44.278Z,9.51
2022-10-10T07:15:11.899Z,9.56
2022-10-10T07:17:40.659Z,9.69
2022-10-10T07:20:09.791Z,9.75
2022-10-10T07:22:36.374Z,9.88
2022-10-10T07:25:03.020Z,10.01
2022-10-10T07:27:29.616Z,10.13
2022-10-10T07:29:56.272Z,10.22
2022-10-10T07:32:23.008Z,10.39
2022-10-10T07:34:50.964Z,10.57
2022-10-10T07:37:18.041Z,10.72
2022-10-10T07:39:44.786Z,10.92
2022-10-10T07:42:11.676Z,11.07
2022-10-10T07:44:38.279Z,11.24
2022-10-10T07:47:07.018Z,11.45
2022-10-10T07:49:33.574Z,11.64
2022-10-10T07:52:03.317Z,11.78
2022-10-10T07:54:30.616Z,11.94
2022-10-10T07:56:58.159Z,12.09
2022-10-10T07:59:25.330Z,12.08
2022-10-10T08:01:52.401Z,12.31
2022-10-10T08:04:21.523Z,12.34
2022-10-10T08:06:48.739Z,12.49
2022-10-10T08:09:15.536Z,12.46
2022-10-10T08:11:42.176Z,12.65
2022-10-10T08:14:09.027Z,12.62
2022-10-10T08:16:35.902Z,12.65
2022-10-10T08:19:02.593Z,12.59
2022-10-10T08:21:29.244Z,12.65
2022-10-10T08:23:56.045Z,12.61
2022-10-10T08:26:22.629Z,12.70
2022-10-10T08:28:49.464Z,12.75
2022-10-10T08:31:19.170Z,12.79
2022-10-10T08:33:47.052Z,12.93
2022-10-10T08:36:19.906Z,13.09
2022-10-10T08:38:47.727Z,13.93
2022-10-10T08:41:52.149Z,15.09
2022-10-10T08:44:48.584Z,15.35
2022-10-10T08:47:31.001Z,16.78
2022-10-10T08:50:04.063Z,16.97
2022-10-10T08:52:33.782Z,16.71
2022-10-10T08:55:11.397Z,16.68
2022-10-10T08:57:55.405Z,16.65
2022-10-10T09:00:26.683Z,16.00
2022-10-10T09:03:01.947Z,16.24
2022-10-10T09:05:40.896Z,16.12
2022-10-10T09:08:26.375Z,15.96
2022-10-10T09:11:15.920Z,15.69
2022-10-10T09:13:58.988Z,15.96
2022-10-10T09:16:41.671Z,16.22
2022-10-10T09:19:33.021Z,16.59
2022-10-10T09:22:05.122Z,16.86
2022-10-10T09:24:42.698Z,17.22
2022-10-10T09:27:16.955Z,17.43
2022-10-10T09:29:49.529Z,17.42
2022-10-10T09:32:23.062Z,17.34
2022-10-10T09:35:00.360Z,17.29
2022-10-10T09:37:46.881Z,17.31
2022-10-10T09:40:36.051Z,17.31
2022-10-10T09:43:13.938Z,17.30
2022-10-10T09:45:48.234Z,17.35
2022-10-10T09:48:16.352Z,17.44
2022-10-10T09:50:43.885Z,17.46
2022-10-10T09:53:19.576Z,17.43
2022-10-10T09:55:47.234Z,17.50
2022-10-10T09:58:21.278Z,17.44
2022-10-10T10:00:48.100Z,17.35
2022-10-10T10:03:17.035Z,17.35
2022-10-10T10:06:14.914Z,17.32
2022-10-10T10:08:46.776Z,17.24
2022-10-10T10:11:32.772Z,17.23
2022-10-10T10:14:02.511Z,17.29
2022-10-10T10:16:39.091Z,17.19
2022-10-10T10:19:28.658Z,17.21
2022-10-10T10:21:55.788Z,17.22
2022-10-10T10:24:29.528Z,17.41
2022-10-10T10:26:56.205Z,17.79
2022-10-10T10:29:31.808Z,18.36
2022-10-10T10:32:07.553Z,18.63
2022-10-10T10:35:11.616Z,18.74
2022-10-10T10:37:52.428Z,18.96
2022-10-10T10:40:31.674Z,19.10
2022-10-10T10:43:14.886Z,19.23
2022-10-10T10:45:51.677Z,19.24
2022-10-10T10:48:49.911Z,19.16
2022-10-10T10:51:24.811Z,19.28
2022-10-10T10:54:06.579Z,19.45
2022-10-10T10:56:41.457Z,19.38
2022-10-10T11:02:51.137Z,19.21
2022-10-10T11:05:35.283Z,19.26
2022-10-10T11:08:35.883Z,19.46
2022-10-10T11:11:08.312Z,19.55
2022-10-10T11:14:13.312Z,19.45
2022-10-10T11:16:50.645Z,19.82
2022-10-10T11:19:32.927Z,19.87
2022-10-10T11:22:12.263Z,19.87
2022-10-10T11:24:59.574Z,19.77
2022-10-10T11:27:59.134Z,19.91
2022-10-10T11:30:29.512Z,20.01
2022-10-10T11:33:02.361Z,20.13
2022-10-10T11:35:38.192Z,20.16
2022-10-10T11:38:23.398Z,20.26
2022-10-10T11:41:02.562Z,20.53
2022-10-10T11:43:51.231Z,20.68
2022-10-10T11:46:29.465Z,20.85
2022-10-10T11:49:08.437Z,20.90
2022-10-10T11:52:15.007Z,20.81
2022-10-10T11:54:59.118Z,20.59
2022-10-10T11:58:18.663Z,20.30
2022-10-10T12:00:52.159Z,20.23
2022-10-10T12:03:19.360Z,20.35
2022-10-10T12:06:20.552Z,20.33
2022-10-10T12:08:57.441Z,20.45
2022-10-10T12:11:50.258Z,20.69
2022-10-10T12:14:20.510Z,20.61
2022-10-10T12:16:48.022Z,20.38
2022-10-10T12:19:19.712Z,20.51
2022-10-10T12:21:55.472Z,20.32
2022-10-10T12:24:25.700Z,20.14
2022-10-10T12:26:55.672Z,20.04
2022-10-10T12:29:56.396Z,19.92
2022-10-10T12:32:25.354Z,19.93
2022-10-10T12:34:51.825Z,19.82
2022-10-10T12:37:27.248Z,19.75
2022-10-10T12:40:05.922Z,19.77
2022-10-10T12:42:47.733Z,19.82
2022-10-10T12:45:29.603Z,19.84
2022-10-10T12:48:06.754Z,19.84
2022-10-10T12:50:42.966Z,19.79
2022-10-10T12:53:12.609Z,19.72
2022-10-10T12:55:45.956Z,19.60
2022-10-10T12:58:29.972Z,19.53
2022-10-10T13:00:59.931Z,19.45
2022-10-10T13:03:41.951Z,19.39
2022-10-10T13:06:15.336Z,19.36
2022-10-10T13:08:42.241Z,19.22
2022-10-10T13:11:14.985Z,19.04
2022-10-10T13:13:52.397Z,18.96
2022-10-10T13:16:24.512Z,18.88
2022-10-10T13:18:53.901Z,18.84
2022-10-10T13:21:32.837Z,18.79
2022-10-10T13:24:03.873Z,18.71
2022-10-10T13:26:46.018Z,18.50
2022-10-10T13:29:21.747Z,18.49
2022-10-10T13:31:52.945Z,18.36
2022-10-10T13:34:27.257Z,18.24
2022-10-10T13:36:57.363Z,18.19
2022-10-10T13:39:24.923Z,18.12
2022-10-10T13:41:52.382Z,18.05
2022-10-10T13:44:25.232Z,17.99
2022-10-10T13:46:52.327Z,17.92
2022-10-10T13:49:23.634Z,17.88
2022-10-10T13:52:00.923Z,17.82
2022-10-10T13:54:50.834Z,17.80
2022-10-10T13:57:17.387Z,17.84
2022-10-10T13:59:45.891Z,17.86
2022-10-10T14:02:19.137Z,17.97
2022-10-10T14:04:52.688Z,17.98
2022-10-10T14:07:22.170Z,18.05
2022-10-10T14:09:56.491Z,17.99
2022-10-10T14:12:28.987Z,17.95
2022-10-10T14:14:58.517Z,17.90
2022-10-10T14:17:26.181Z,17.77
2022-10-10T14:19:53.172Z,17.65
2022-10-10T14:22:23.139Z,17.57
2022-10-10T14:24:50.431Z,17.46
2022-10-10T14:27:19.972Z,17.37
2022-10-10T14:29:47.028Z,17.31
2022-10-10T14:32:17.385Z,17.24
2022-10-10T14:34:46.485Z,17.14
2022-10-10T14:37:27.785Z,17.12
2022-10-10T14:39:57.937Z,17.00
2022-10-10T14:42:26.399Z,17.00
2022-10-10T14:44:55.433Z,16.85
2022-10-10T14:47:24.507Z,16.70
2022-10-10T14:49:56.723Z,16.53
2022-10-10T14:52:23.294Z,16.30
2022-10-10T14:54:52.288Z,16.06
2022-10-10T14:57:19.589Z,15.92
2022-10-10T14:59:49.774Z,15.81
2022-10-10T15:02:18.692Z,15.67
2022-10-10T15:04:45.471Z,15.50
2022-10-10T15:07:14.311Z,15.40
2022-10-10T15:09:56.521Z,15.23
2022-10-10T15:12:28.942Z,15.17
2022-10-10T15:14:55.603Z,15.11
2022-10-10T15:17:22.717Z,15.06
2022-10-10T15:19:49.234Z,15.07
2022-10-10T15:22:19.479Z,14.98
2022-10-10T15:24:46.082Z,15.02
2022-10-10T15:27:12.770Z,14.98
2022-10-10T15:29:41.949Z,14.81
2022-10-10T15:32:10.839Z,15.01
2022-10-10T15:34:37.556Z,15.04
2022-10-10T15:37:08.167Z,14.98
2022-10-10T15:39:35.954Z,15.08
2022-10-10T15:42:12.235Z,15.06
2022-10-10T15:44:49.442Z,15.07
2022-10-10T15:47:20.106Z,15.08
2022-10-10T15:49:47.076Z,15.06
2022-10-10T15:52:14.130Z,15.19
2022-10-10T15:54:40.972Z,15.24
2022-10-10T15:57:07.838Z,15.26
2022-10-10T15:59:36.782Z,15.21
2022-10-10T16:02:06.169Z,15.15
2022-10-10T16:04:32.764Z,15.20
2022-10-10T16:09:50.786Z,15.13
2022-10-10T16:12:19.708Z,15.19
2022-10-10T16:14:46.318Z,15.18
2022-10-10T16:17:13.079Z,15.22
2022-10-10T16:19:39.728Z,15.24
2022-10-10T16:22:06.397Z,15.06
2022-10-10T16:24:33.359Z,15.26
2022-10-10T16:27:01.935Z,15.26
2022-10-10T16:29:28.644Z,15.23
2022-10-10T16:31:57.561Z,15.12
2022-10-10T16:34:24.161Z,15.08
2022-10-10T16:36:50.904Z,15.03
2022-10-10T16:39:19.724Z,14.93
2022-10-10T16:41:49.573Z,14.85
2022-10-10T16:44:17.680Z,14.75
2022-10-10T16:46:44.843Z,14.65
2022-10-10T16:49:16.797Z,14.50
2022-10-10T16:51:43.664Z,14.40
2022-10-10T16:54:10.267Z,14.36
2022-10-10T16:56:36.984Z,14.27
2022-10-10T16:59:05.354Z,14.18
2022-10-10T17:01:32.022Z,14.10
2022-10-10T17:04:00.297Z,14.02
2022-10-10T17:06:32.630Z,13.95
2022-10-10T17:09:07.179Z,13.79
2022-10-10T17:11:36.539Z,13.78
2022-10-10T17:14:03.914Z,13.67
2022-10-10T17:19:23.911Z,13.55
2022-10-10T17:21:50.577Z,13.52
2022-10-10T17:24:18.912Z,13.44
2022-10-10T17:26:45.563Z,13.39
2022-10-10T17:29:14.743Z,13.32
2022-10-10T17:31:41.443Z,13.23
2022-10-10T17:34:10.440Z,13.21
2022-10-10T17:36:37.092Z,13.11
2022-10-10T17:39:04.323Z,13.01
2022-10-10T17:41:33.439Z,13.48
2022-10-10T17:44:05.939Z,13.75
2022-10-10T17:46:36.689Z,13.28
2022-10-10T17:49:06.006Z,13.11
2022-10-10T17:51:32.905Z,13.01
2022-10-10T17:54:00.665Z,12.92
2022-10-10T17:56:29.906Z,12.85
2022-10-10T17:58:56.657Z,12.77
2022-10-10T18:01:23.497Z,12.65
2022-10-10T18:03:50.373Z,12.61
2022-10-10T18:06:20.693Z,12.57
2022-10-10T18:08:48.638Z,12.46
2022-10-10T18:11:21.559Z,12.44
2022-10-10T18:13:48.561Z,12.32
2022-10-10T18:16:17.558Z,12.16
2022-10-10T18:18:50.651Z,12.28
2022-10-10T18:21:24.033Z,12.14
2022-10-10T18:23:53.517Z,12.16
2022-10-10T18:26:25.875Z,12.11
2022-10-10T18:28:55.559Z,12.05
2022-10-10T18:31:26.228Z,11.98
2022-10-10T18:33:53.915Z,11.95
2022-10-10T18:36:24.015Z,11.77
2022-10-10T18:38:53.667Z,11.86
2022-10-10T18:41:22.657Z,11.62
2022-10-10T18:43:54.203Z,11.81
2022-10-10T18:46:22.569Z,11.77
2022-10-10T18:48:54.228Z,11.68
2022-10-10T18:51:26.462Z,11.66
2022-10-10T18:54:02.256Z,11.64
2022-10-10T18:56:30.387Z,11.60
2022-10-10T18:59:01.221Z,11.57
2022-10-10T19:01:29.948Z,11.73
2022-10-10T19:03:56.899Z,11.53
2022-10-10T19:06:24.811Z,11.46
2022-10-10T19:08:56.317Z,11.44
2022-10-10T19:11:25.622Z,11.37
2022-10-10T19:13:52.599Z,11.30
2022-10-10T19:16:19.996Z,11.29
2022-10-10T19:18:47.469Z,11.20
2022-10-10T19:21:15.294Z,11.48
2022-10-10T19:23:43.199Z,11.63
2022-10-10T19:26:12.962Z,11.34
2022-10-10T19:28:43.139Z,11.23
2022-10-10T19:31:14.593Z,11.17
2022-10-10T19:33:42.163Z,11.07
2022-10-10T19:36:12.714Z,11.04
2022-10-10T19:38:42.180Z,10.95
2022-10-10T19:41:15.978Z,10.92
2022-10-10T19:43:48.974Z,10.82
2022-10-10T19:46:17.888Z,10.76
2022-10-10T19:48:44.483Z,10.75
2022-10-10T19:51:13.822Z,10.71
2022-10-10T19:53:41.760Z,10.66
2022-10-10T19:56:16.178Z,10.62
2022-10-10T19:58:43.563Z,10.53
2022-10-10T20:01:13.500Z,10.51
2022-10-10T20:03:44.007Z,10.48
2022-10-10T20:06:11.186Z,10.41
2022-10-10T20:08:38.264Z,10.37
2022-10-10T20:11:07.701Z,10.31
2022-10-10T20:13:34.876Z,10.24
2022-10-10T20:16:06.371Z,10.23
2022-10-10T20:18:35.119Z,10.12
2022-10-10T20:21:09.428Z,10.05
2022-10-10T20:23:37.697Z,10.07
2022-10-10T20:26:09.265Z,9.99
2022-10-10T20:28:38.281Z,10.04
2022-10-10T20:31:07.096Z,9.84
2022-10-10T20:33:33.655Z,9.96
2022-10-10T20:36:03.497Z,9.94
2022-10-10T20:38:30.367Z,9.91
2022-10-10T20:41:05.053Z,9.87
2022-10-10T20:43:31.582Z,9.67
2022-10-10T20:46:12.368Z,9.64
2022-10-10T20:48:41.992Z,9.73
2022-10-10T20:51:16.486Z,9.72
2022-10-10T20:53:43.335Z,9.68
2022-10-10T20:56:12.238Z,9.62
2022-10-10T20:58:40.394Z,9.65
2022-10-10T21:01:10.078Z,9.63
2022-10-10T21:03:37.979Z,9.61
2022-10-10T21:06:09.574Z,9.59
2022-10-10T21:08:36.495Z,9.49
2022-10-10T21:11:07.676Z,9.54
2022-10-10T21:13:36.040Z,9.51
2022-10-10T21:16:07.114Z,9.48
2022-10-10T21:18:34.159Z,9.44
2022-10-10T21:21:02.178Z,9.19
2022-10-10T21:23:30.188Z,9.38
2022-10-10T21:26:01.575Z,9.25
2022-10-10T21:28:28.454Z,9.33
2022-10-10T21:30:55.126Z,9.25
2022-10-10T21:33:22.075Z,9.27
2022-10-10T21:35:53.730Z,9.29
2022-10-10T21:38:20.830Z,9.27
2022-10-10T21:40:48.105Z,9.09
2022-10-10T21:43:15.863Z,9.21
2022-10-10T21:45:45.554Z,9.19
2022-10-10T21:48:12.899Z,9.17
2022-10-10T21:50:39.928Z,9.11
2022-10-10T21:53:11.788Z,9.11
2022-10-10T21:55:39.855Z,9.11
2022-10-10T21:58:06.421Z,9.06
2022-10-10T22:00:33.147Z,9.01
2022-10-10T22:03:01.818Z,9.03
2022-10-10T22:05:28.359Z,9.03
2022-10-10T22:07:57.412Z,9.02
2022-10-10T22:10:23.983Z,8.98
2022-10-10T22:12:50.550Z,8.88
2022-10-10T22:15:17.291Z,8.94
2022-10-10T22:17:43.930Z,8.87
2022-10-10T22:20:11.721Z,8.90
2022-10-10T22:22:40.361Z,8.90
2022-10-10T22:25:09.887Z,8.87
2022-10-10T22:27:36.913Z,8.84
2022-10-10T22:30:06.017Z,8.74
2022-10-10T22:32:32.904Z,8.69
2022-10-10T22:34:59.640Z,8.70
2022-10-10T22:37:26.696Z,8.68
2022-10-10T22:39:53.457Z,8.60
2022-10-10T22:42:19.945Z,8.54
2022-10-10T22:44:46.524Z,8.61
2022-10-10T22:47:15.601Z,8.40
2022-10-10T22:49:42.135Z,8.57
2022-10-10T22:52:10.052Z,8.55
2022-10-10T22:54:36.731Z,8.49
2022-10-10T22:57:03.406Z,8.48
2022-10-10T22:59:30.011Z,8.47
2022-10-10T23:01:59.232Z,8.43
2022-10-10T23:04:25.899Z,8.43
2022-10-10T23:06:52.486Z,8.39
2022-10-10T23:09:19.084Z,8.33
2022-10-10T23:11:45.665Z,8.35
2022-10-10T23:14:12.441Z,8.30
2022-10-10T23:16:40.867Z,8.26
2022-10-10T23:19:07.757Z,8.25
2022-10-10T23:21:34.322Z,8.25
2022-10-10T23:24:00.893Z,8.22
2022-10-10T23:26:29.878Z,8.18
2022-10-10T23:28:58.966Z,8.14
2022-10-10T23:31:25.592Z,8.05
2022-10-10T23:33:54.689Z,8.03
2022-10-10T23:36:21.234Z,8.06
2022-10-10T23:38:48.217Z,7.95
2022-10-10T23:41:17.191Z,8.00
2022-10-10T23:43:44.223Z,7.95
2022-10-10T23:46:15.599Z,7.97
2022-10-10T23:48:47.163Z,7.96
2022-10-10T23:51:14.422Z,7.90
2022-10-10T23:53:43.611Z,7.87
2022-10-10T23:56:10.578Z,7.88
2022-10-10T23:58:37.166Z,7.85
